Time;durP1;ratioP1;P1;durP2;ratioP2;P2;SDS_P1;SDS_P2;PMS_P1;PMS_P2;Temp;Humidity;BMP_temperature;BMP_pressure;BME280_temperature;BME280_humidity;BME280_pressure;Samples;Min_cycle;Max_cycle;Signal;HPM_P1;HPM_P2
2022/05/13 00:00:31;;;;;;;4.72;1.88;;;;;;;16.90;40.79;101705.22;5101504;28;20046;-59
2022/05/13 00:02:57;;;;;;;9.30;1.90;;;;;;;16.88;40.84;101695.50;5136547;27;20388;-62
2022/05/13 00:05:24;;;;;;;4.55;1.63;;;;;;;16.85;40.86;101688.47;5137490;27;20039;-59
2022/05/13 00:07:51;;;;;;;5.88;2.00;;;;;;;16.82;41.00;101691.44;5140380;27;20039;-59
2022/05/13 00:10:18;;;;;;;5.00;1.70;;;;;;;16.77;41.30;101694.56;5137375;27;20043;-58
2022/05/13 00:12:45;;;;;;;5.88;1.60;;;;;;;16.76;41.50;101687.41;5131094;27;20495;-60
2022/05/13 00:15:15;;;;;;;7.50;2.20;;;;;;;16.68;41.37;101691.75;5134844;27;20043;-59
2022/05/13 00:17:42;;;;;;;4.65;1.80;;;;;;;16.61;41.31;101685.94;5140027;27;20062;-60
2022/05/13 00:20:11;;;;;;;6.60;2.78;;;;;;;16.56;41.55;101688.16;5140421;27;20039;-60
2022/05/13 00:22:46;;;;;;;5.30;1.80;;;;;;;16.55;41.37;101689.16;5140422;27;20064;-60
2022/05/13 00:25:16;;;;;;;5.90;1.97;;;;;;;16.55;41.55;101689.16;5118386;28;20413;-60
2022/05/13 00:27:43;;;;;;;4.97;1.95;;;;;;;16.49;41.65;101685.09;5137290;27;20035;-62
2022/05/13 00:30:10;;;;;;;5.38;2.00;;;;;;;16.43;41.79;101687.47;5140363;27;20043;-60
2022/05/13 00:32:40;;;;;;;6.72;2.15;;;;;;;16.36;41.76;101686.25;5132118;27;20047;-60
2022/05/13 00:35:07;;;;;;;5.60;1.90;;;;;;;16.28;42.06;101692.25;5140205;27;20507;-60
2022/05/13 00:37:34;;;;;;;3.95;2.10;;;;;;;16.25;42.24;101688.94;5140524;27;20043;-59
2022/05/13 00:40:02;;;;;;;6.68;2.00;;;;;;;16.23;42.12;101685.50;5134534;27;20035;-60
2022/05/13 00:42:28;;;;;;;6.57;2.25;;;;;;;16.19;42.19;101683.03;5138596;27;20050;-59
2022/05/13 00:44:57;;;;;;;6.13;2.42;;;;;;;16.16;42.41;101680.56;5138829;27;20557;-60
2022/05/13 00:47:24;;;;;;;5.88;2.22;;;;;;;16.11;42.45;101681.94;5137371;27;20035;-59
2022/05/13 00:49:50;;;;;;;5.78;2.22;;;;;;;16.06;42.52;101676.88;5137520;27;20031;-60
2022/05/13 00:52:17;;;;;;;7.85;2.47;;;;;;;16.03;42.45;101674.44;5133679;27;20066;-60
2022/05/13 00:54:44;;;;;;;7.00;3.20;;;;;;;16.04;42.66;101678.84;5114966;27;20488;-61
2022/05/13 00:57:11;;;;;;;7.22;2.08;;;;;;;16.05;42.74;101677.00;5136374;27;20054;-58
2022/05/13 00:59:41;;;;;;;4.22;2.60;;;;;;;16.06;42.82;101682.31;5136502;27;20039;-60
2022/05/13 01:02:08;;;;;;;5.32;2.28;;;;;;;16.05;42.80;101679.72;5133846;27;20039;-59
2022/05/13 01:04:38;;;;;;;4.63;2.10;;;;;;;16.01;43.08;101689.09;5136149;27;20039;-59
2022/05/13 01:07:09;;;;;;;4.60;2.05;;;;;;;15.97;43.06;101674.94;5115257;27;20043;-59
2022/05/13 01:09:40;;;;;;;7.65;2.35;;;;;;;15.94;43.16;101677.03;5136272;27;20035;-59
2022/05/13 01:12:11;;;;;;;6.20;2.30;;;;;;;15.87;43.18;101673.94;5136048;27;20481;-60
2022/05/13 01:14:44;;;;;;;8.25;2.25;;;;;;;15.81;43.25;101675.28;5133161;27;20054;-58
2022/05/13 01:20:09;;;;;;;7.03;2.70;;;;;;;15.72;43.28;101669.75;5134351;27;20035;-59
2022/05/13 01:22:48;;;;;;;8.88;2.65;;;;;;;15.70;43.75;101669.00;5136222;27;20050;-59
2022/05/13 01:25:19;;;;;;;7.78;2.53;;;;;;;15.69;43.49;101670.84;5133148;27;20382;-59
2022/05/13 01:27:47;;;;;;;6.70;2.65;;;;;;;15.69;43.75;101665.44;5133201;27;20122;-60
2022/05/13 01:30:18;;;;;;;6.35;2.50;;;;;;;15.70;43.86;101661.75;5132941;27;20401;-60
2022/05/13 01:32:45;;;;;;;6.43;2.65;;;;;;;15.71;43.78;101671.59;5129395;27;20046;-60
2022/05/13 01:35:13;;;;;;;7.78;2.90;;;;;;;15.70;44.10;101672.59;5135679;27;20043;-59
2022/05/13 01:37:40;;;;;;;11.57;3.35;;;;;;;15.68;44.13;101671.84;5135699;27;20035;-59
2022/05/13 01:40:08;;;;;;;6.82;3.22;;;;;;;15.62;44.16;101672.31;5128931;27;20031;-59
2022/05/13 01:42:35;;;;;;;5.20;2.70;;;;;;;15.61;44.33;101670.59;5131847;27;20035;-59
2022/05/13 01:45:03;;;;;;;6.07;2.67;;;;;;;15.61;44.43;101677.88;5135011;27;20555;-60
2022/05/13 01:47:30;;;;;;;7.05;2.92;;;;;;;15.55;44.55;101674.59;5134182;27;20039;-59
2022/05/13 01:49:57;;;;;;;9.10;2.65;;;;;;;15.52;44.63;101682.97;5133059;27;20500;-59
2022/05/13 01:52:24;;;;;;;6.05;2.70;;;;;;;15.48;44.68;101672.50;5132933;27;20393;-60
2022/05/13 01:54:50;;;;;;;10.43;3.30;;;;;;;15.46;44.60;101679.88;5135338;27;20493;-60
2022/05/13 01:57:17;;;;;;;7.80;2.63;;;;;;;15.45;44.74;101678.16;5111320;27;20039;-59
2022/05/13 01:59:44;;;;;;;5.57;2.58;;;;;;;15.43;44.78;101688.22;5132531;27;20499;-59
2022/05/13 02:02:10;;;;;;;6.97;2.42;;;;;;;15.41;44.90;101682.94;5132638;27;20161;-59
2022/05/13 02:04:37;;;;;;;9.98;2.85;;;;;;;15.41;45.19;101687.50;5134227;27;20043;-59
2022/05/13 02:07:04;;;;;;;7.78;2.75;;;;;;;15.40;45.21;101688.47;5130158;27;20044;-59
2022/05/13 02:09:31;;;;;;;5.55;2.30;;;;;;;15.39;45.47;101684.03;5129545;27;20059;-59
2022/05/13 02:11:58;;;;;;;7.68;2.60;;;;;;;15.41;45.45;101685.63;5134971;27;20450;-59
2022/05/13 02:14:24;;;;;;;7.13;2.83;;;;;;;15.45;45.53;101687.13;5132265;27;20027;-59
2022/05/13 02:16:51;;;;;;;10.52;2.80;;;;;;;15.47;45.71;101677.03;5131447;27;20043;-59
2022/05/13 02:19:17;;;;;;;4.60;2.28;;;;;;;15.51;45.84;101674.94;5133904;27;20504;-59
2022/05/13 02:21:44;;;;;;;6.60;2.17;;;;;;;15.54;45.74;101672.00;5132439;27;20511;-59
2022/05/13 02:24:11;;;;;;;4.32;2.15;;;;;;;15.60;45.64;101684.22;5129335;27;20043;-59
2022/05/13 02:26:37;;;;;;;6.63;2.25;;;;;;;15.65;45.81;101673.94;5132041;27;20044;-60
2022/05/13 02:29:04;;;;;;;5.47;2.30;;;;;;;15.69;45.79;101681.69;5134902;27;20039;-59
2022/05/13 02:31:31;;;;;;;7.15;2.40;;;;;;;15.74;45.81;101668.66;5125924;27;20419;-59
2022/05/13 02:33:58;;;;;;;6.25;2.10;;;;;;;15.78;45.76;101672.84;5107567;27;20046;-59
2022/05/13 02:36:25;;;;;;;11.23;2.47;;;;;;;15.83;45.77;101675.16;5128611;27;20047;-60
2022/05/13 02:38:52;;;;;;;6.35;2.65;;;;;;;15.87;45.55;101671.22;5129141;27;20378;-60
2022/05/13 02:41:19;;;;;;;8.20;2.45;;;;;;;15.89;45.59;101670.13;5110699;27;20051;-59
2022/05/13 02:43:52;;;;;;;7.20;2.80;;;;;;;15.91;45.57;101670.00;5125522;27;20039;-59
2022/05/13 02:46:28;;;;;;;7.38;2.28;;;;;;;15.91;45.76;101672.72;5134288;27;20520;-59
2022/05/13 02:48:55;;;;;;;8.63;2.42;;;;;;;15.94;45.36;101671.59;5133413;27;20107;-59
2022/05/13 02:51:23;;;;;;;10.43;2.63;;;;;;;15.96;45.35;101666.91;5128621;27;20130;-59
2022/05/13 02:53:50;;;;;;;11.88;3.30;;;;;;;15.97;45.46;101661.38;5134432;27;20092;-59
2022/05/13 02:56:17;;;;;;;7.68;2.78;;;;;;;15.98;45.54;101659.53;5127647;27;20039;-59
2022/05/13 02:58:44;;;;;;;7.90;2.95;;;;;;;15.97;45.57;101663.22;5128118;27;20126;-59
2022/05/13 03:01:13;;;;;;;6.35;2.42;;;;;;;15.98;45.49;101659.53;5132832;27;20035;-60
2022/05/13 03:03:43;;;;;;;8.43;3.50;;;;;;;16.00;45.83;101660.25;5130344;27;20039;-60
2022/05/13 03:06:10;;;;;;;8.60;3.20;;;;;;;16.02;45.84;101663.72;5131299;27;20043;-60
2022/05/13 03:08:36;;;;;;;8.45;2.72;;;;;;;16.03;45.80;101662.72;5134258;27;20043;-60
2022/05/13 03:11:04;;;;;;;6.75;2.90;;;;;;;16.04;45.74;101664.44;5130204;27;20031;-59
2022/05/13 03:13:31;;;;;;;9.52;3.10;;;;;;;16.05;45.91;101658.03;5132899;27;20500;-60
2022/05/13 03:16:10;;;;;;;8.27;3.33;;;;;;;16.06;45.77;101662.47;5129307;27;20054;-59
2022/05/13 03:18:40;;;;;;;10.00;3.50;;;;;;;16.08;46.14;101658.66;5133922;27;20465;-60
2022/05/13 03:21:08;;;;;;;8.55;3.20;;;;;;;16.10;46.13;101644.97;5132519;27;20133;-59
2022/05/13 03:23:35;;;;;;;9.68;3.20;;;;;;;16.13;45.87;101661.00;5133956;27;20059;-60
2022/05/13 03:26:01;;;;;;;8.52;3.53;;;;;;;16.14;46.13;101658.16;5134160;27;20461;-60
2022/05/13 03:28:28;;;;;;;9.35;3.22;;;;;;;16.16;45.90;101652.59;5134533;27;20031;-60
2022/05/13 03:30:55;;;;;;;7.00;2.97;;;;;;;16.17;46.23;101657.91;5132269;27;20126;-59
2022/05/13 03:33:21;;;;;;;7.30;2.90;;;;;;;16.19;46.27;101657.78;5131348;27;20043;-59
2022/05/13 03:35:48;;;;;;;7.60;3.50;;;;;;;16.21;46.21;101650.38;5131591;27;20479;-60
2022/05/13 03:38:15;;;;;;;8.93;3.63;;;;;;;16.21;46.35;101653.97;5128966;28;20126;-60
2022/05/13 03:40:41;;;;;;;10.70;3.30;;;;;;;16.20;46.39;101660.38;5133848;28;20039;-59
2022/05/13 03:43:08;;;;;;;6.55;3.40;;;;;;;16.20;46.46;101663.06;5134040;28;20377;-59
2022/05/13 03:45:36;;;;;;;8.45;3.03;;;;;;;16.21;46.63;101661.22;5134558;28;20039;-60
2022/05/13 03:48:04;;;;;;;8.80;3.53;;;;;;;16.20;46.43;101645.94;5130600;28;20046;-58
2022/05/13 03:50:32;;;;;;;12.77;3.95;;;;;;;16.20;46.42;101652.22;5122962;28;20586;-61
2022/05/13 03:53:00;;;;;;;7.70;3.40;;;;;;;16.19;46.74;101660.50;5131056;27;20571;-60
2022/05/13 03:55:26;;;;;;;16.00;4.18;;;;;;;16.19;46.73;101669.47;5133889;28;20046;-60
2022/05/13 03:57:57;;;;;;;11.45;4.00;;;;;;;16.20;46.80;101676.63;5099513;28;20038;-59
2022/05/13 04:00:24;;;;;;;7.80;3.25;;;;;;;16.20;46.90;101654.94;5126065;28;20058;-60
2022/05/13 04:02:50;;;;;;;10.68;4.22;;;;;;;16.23;46.68;101655.69;5127931;28;20050;-60
2022/05/13 04:10:48;;;;;;;11.95;4.63;;;;;;;16.21;46.65;101672.06;5133697;28;20049;-59
2022/05/13 04:16:05;;;;;;;9.88;5.45;;;;;;;16.19;46.77;101655.94;5133940;28;20046;-59
2022/05/13 04:18:45;;;;;;;10.65;4.03;;;;;;;16.18;47.09;101673.19;5131106;28;20057;-60
2022/05/13 04:21:15;;;;;;;12.27;4.93;;;;;;;16.18;47.10;101664.19;5128186;28;20233;-60
2022/05/13 04:23:44;;;;;;;11.50;4.40;;;;;;;16.19;47.36;101668.63;5133540;28;20035;-60
2022/05/13 04:26:12;;;;;;;8.70;4.70;;;;;;;16.19;47.30;101657.78;5135700;27;20485;-60
2022/05/13 04:28:41;;;;;;;12.05;4.72;;;;;;;16.18;47.49;101658.75;5137549;27;20111;-60
2022/05/13 04:31:09;;;;;;;11.73;4.32;;;;;;;16.17;47.31;101657.91;5136307;27;20046;-60
2022/05/13 04:33:37;;;;;;;15.82;4.60;;;;;;;16.18;47.42;101658.75;5134107;27;20050;-59
2022/05/13 04:36:05;;;;;;;11.15;4.85;;;;;;;16.20;47.64;101656.78;5136667;27;20512;-60
2022/05/13 04:38:32;;;;;;;13.48;4.68;;;;;;;16.19;47.69;101676.75;5130654;27;20039;-60
2022/05/13 04:43:45;;;;;;;10.13;4.82;;;;;;;16.18;47.59;101673.19;5137062;27;20039;-59
2022/05/13 04:46:11;;;;;;;11.98;4.70;;;;;;;16.16;47.64;101688.69;5135139;27;20042;-60
2022/05/13 04:48:38;;;;;;;17.70;5.43;;;;;;;16.17;47.83;101692.28;5136729;27;20052;-60
2022/05/13 04:51:04;;;;;;;11.85;4.55;;;;;;;16.15;47.79;101686.97;5133633;27;20378;-60
2022/05/13 04:53:34;;;;;;;10.75;4.78;;;;;;;16.15;47.91;101689.69;5113712;27;20046;-59
2022/05/13 04:56:03;;;;;;;15.73;5.10;;;;;;;16.14;47.79;101690.69;5137195;27;20035;-60
2022/05/13 04:58:30;;;;;;;13.55;5.00;;;;;;;16.15;47.71;101688.81;5135487;27;20067;-60
2022/05/13 05:00:58;;;;;;;14.68;5.03;;;;;;;16.14;47.94;101704.22;5131438;27;20049;-60
2022/05/13 05:03:28;;;;;;;10.93;4.25;;;;;;;16.14;48.20;101697.94;5134225;27;20039;-60
2022/05/13 05:05:57;;;;;;;12.15;5.60;;;;;;;16.14;48.53;101706.94;5128626;27;20088;-59
2022/05/13 05:08:25;;;;;;;15.70;5.72;;;;;;;16.16;48.10;101706.81;5131454;27;20408;-60
2022/05/13 05:10:52;;;;;;;12.40;4.82;;;;;;;16.19;48.55;101706.56;5132523;27;20485;-59
2022/05/13 05:13:21;;;;;;;13.45;5.03;;;;;;;16.22;48.57;101706.31;5136015;27;20111;-60
2022/05/13 05:15:49;;;;;;;14.70;6.05;;;;;;;16.28;48.73;101713.94;5130813;27;20061;-60
2022/05/13 05:18:15;;;;;;;12.40;5.20;;;;;;;16.30;48.62;101709.25;5115887;27;20389;-59
2022/05/13 05:20:43;;;;;;;17.52;5.60;;;;;;;16.33;49.05;101716.28;5133104;27;20035;-59
2022/05/13 05:23:18;;;;;;;17.33;6.03;;;;;;;16.35;49.01;101720.63;5130706;27;20117;-60
2022/05/13 05:25:45;;;;;;;13.10;5.72;;;;;;;16.37;49.05;101724.06;5133857;27;20046;-60
2022/05/13 05:28:12;;;;;;;20.23;6.53;;;;;;;16.41;49.27;101724.69;5136633;27;20068;-59
2022/05/13 05:30:40;;;;;;;15.65;4.88;;;;;;;16.43;49.07;101720.00;5136716;27;20038;-59
2022/05/13 05:33:06;;;;;;;14.02;5.38;;;;;;;16.45;49.07;101718.03;5129270;27;20047;-60
2022/05/13 05:35:33;;;;;;;11.23;5.22;;;;;;;16.48;49.33;101729.47;5139422;27;20042;-60
2022/05/13 05:38:01;;;;;;;12.38;5.60;;;;;;;16.53;49.11;101731.81;5135668;27;20040;-59
2022/05/13 05:40:28;;;;;;;13.45;5.65;;;;;;;16.57;49.07;101737.84;5136238;27;20043;-59
2022/05/13 05:42:54;;;;;;;14.23;5.70;;;;;;;16.62;49.50;101746.47;5135782;27;20039;-60
2022/05/13 05:45:22;;;;;;;12.32;5.97;;;;;;;16.65;49.27;101746.22;5135978;27;20084;-59
2022/05/13 05:47:49;;;;;;;13.27;5.60;;;;;;;16.70;49.51;101754.88;5133214;27;20035;-60
2022/05/13 05:50:19;;;;;;;14.05;5.40;;;;;;;16.73;49.59;101751.91;5135826;27;20469;-60
2022/05/13 05:52:45;;;;;;;14.65;5.75;;;;;;;16.78;49.63;101752.38;5136130;27;20041;-60
2022/05/13 05:58:00;;;;;;;13.30;5.30;;;;;;;16.89;49.54;101768.63;5134170;27;20035;-60
2022/05/13 06:00:28;;;;;;;15.48;6.03;;;;;;;16.92;49.31;101768.38;5136099;27;20039;-60
2022/05/13 06:02:55;;;;;;;15.95;5.53;;;;;;;16.94;49.47;101769.09;5117808;27;20039;-60
2022/05/13 06:05:23;;;;;;;13.90;6.05;;;;;;;16.99;49.25;101766.00;5129888;27;20580;-60
2022/05/13 06:07:52;;;;;;;14.57;6.00;;;;;;;17.00;49.27;101771.31;5121748;27;20036;-59
2022/05/13 06:10:20;;;;;;;13.98;5.55;;;;;;;17.04;49.64;101769.19;5135843;27;20043;-60
2022/05/13 06:12:46;;;;;;;14.45;5.55;;;;;;;17.08;49.47;101771.53;5135768;27;20047;-60
2022/05/13 06:15:13;;;;;;;14.32;5.85;;;;;;;17.13;49.17;101779.31;5119009;27;20092;-60
2022/05/13 06:17:45;;;;;;;16.40;5.93;;;;;;;17.16;49.58;101779.06;5115281;28;20052;-59
2022/05/13 06:20:14;;;;;;;13.55;5.40;;;;;;;17.20;49.60;101796.81;5120942;28;20058;-60
2022/05/13 06:22:41;;;;;;;17.38;6.00;;;;;;;17.25;49.58;101791.00;5129279;27;20104;-59
2022/05/13 06:25:10;;;;;;;12.65;5.80;;;;;;;17.28;49.44;101794.31;5129300;27;20063;-59
2022/05/13 06:27:37;;;;;;;12.75;6.05;;;;;;;17.33;49.53;101802.06;5126862;27;20036;-59
2022/05/13 06:30:13;;;;;;;11.50;6.28;;;;;;;17.35;49.27;101798.25;5131194;27;20497;-59
2022/05/13 06:32:41;;;;;;;14.70;5.68;;;;;;;17.40;49.33;101804.13;5126524;27;20067;-59
2022/05/13 06:35:09;;;;;;;14.57;6.15;;;;;;;17.44;49.27;101805.59;5134894;27;20040;-61
2022/05/13 06:37:36;;;;;;;15.13;6.43;;;;;;;17.48;49.10;101806.19;5132037;27;20038;-60
2022/05/13 06:40:04;;;;;;;16.77;7.22;;;;;;;17.53;49.38;101809.38;5134035;27;20504;-60
2022/05/13 06:42:31;;;;;;;11.93;5.72;;;;;;;17.59;49.32;101808.88;5133217;27;20046;-59
2022/05/13 06:44:59;;;;;;;15.63;5.97;;;;;;;17.66;49.50;101811.91;5112491;27;20397;-61
2022/05/13 06:47:26;;;;;;;12.90;6.47;;;;;;;17.72;49.33;101806.00;5134607;27;20035;-61
2022/05/13 06:49:52;;;;;;;17.67;6.93;;;;;;;17.79;49.32;101805.31;5116261;27;20397;-62
2022/05/13 06:52:19;;;;;;;15.15;7.00;;;;;;;17.85;49.45;101806.69;5135027;27;20061;-62
2022/05/13 06:55:06;;;;;;;16.08;7.63;;;;;;;17.93;49.15;101806.88;5134815;27;20427;-62
2022/05/13 06:57:33;;;;;;;18.88;7.20;;;;;;;17.99;49.21;101810.94;5134635;27;20039;-61
2022/05/13 06:59:59;;;;;;;18.75;7.22;;;;;;;18.06;49.42;101818.41;5133501;27;20457;-62
2022/05/13 07:02:27;;;;;;;15.57;7.20;;;;;;;18.09;49.02;101812.69;5134868;27;20047;-63
2022/05/13 07:04:53;;;;;;;18.08;7.78;;;;;;;18.12;49.05;101817.00;5134637;27;20047;-62
2022/05/13 07:07:20;;;;;;;15.45;7.18;;;;;;;18.15;49.30;101810.44;5134805;27;20054;-62
2022/05/13 07:09:47;;;;;;;13.60;7.53;;;;;;;18.20;49.27;101813.63;5134592;27;20125;-62
2022/05/13 07:12:13;;;;;;;16.30;7.75;;;;;;;18.24;48.96;101815.06;5134445;27;20043;-62
2022/05/13 07:14:40;;;;;;;14.75;7.65;;;;;;;18.27;49.21;101810.22;5134529;27;20051;-62
2022/05/13 07:17:06;;;;;;;15.80;7.45;;;;;;;18.33;49.00;101811.53;5134594;27;20480;-62
2022/05/13 07:19:33;;;;;;;19.02;7.45;;;;;;;18.36;48.63;101814.84;5133565;27;20043;-62
2022/05/13 07:22:03;;;;;;;14.15;6.93;;;;;;;18.41;48.65;101815.31;5134871;27;20138;-61
2022/05/13 07:24:29;;;;;;;12.70;7.95;;;;;;;18.46;48.62;101812.16;5125606;27;20499;-62
2022/05/13 07:26:56;;;;;;;14.65;8.75;;;;;;;18.53;48.53;101816.06;5134684;27;20039;-62
2022/05/13 07:29:22;;;;;;;11.95;7.35;;;;;;;18.60;48.71;101828.16;5135693;27;20043;-60
2022/05/13 07:31:49;;;;;;;14.63;8.07;;;;;;;18.69;48.93;101834.66;5134274;27;20043;-60
2022/05/13 07:34:16;;;;;;;21.83;8.25;;;;;;;18.76;48.58;101824.09;5134079;27;20051;-59
2022/05/13 07:36:42;;;;;;;14.15;6.88;;;;;;;18.84;48.72;101829.69;5134313;27;20039;-59
2022/05/13 07:41:54;;;;;;;11.07;6.90;;;;;;;18.93;48.19;101832.44;5134373;28;20050;-59
2022/05/13 07:44:20;;;;;;;19.17;8.75;;;;;;;19.01;48.31;101829.88;5134353;28;20475;-59
2022/05/13 07:46:47;;;;;;;13.07;6.45;;;;;;;19.09;47.84;101828.31;5134352;28;20043;-60
2022/05/13 07:49:15;;;;;;;13.77;6.68;;;;;;;19.20;48.06;101837.22;5131837;28;20142;-59
2022/05/13 07:51:42;;;;;;;14.48;6.50;;;;;;;19.31;47.57;101828.06;5097840;28;20043;-59
2022/05/13 07:54:09;;;;;;;12.07;6.50;;;;;;;19.36;47.45;101825.81;5133659;27;20050;-59
2022/05/13 07:56:35;;;;;;;12.25;6.20;;;;;;;19.45;47.44;101824.09;5134219;28;20036;-59
2022/05/13 07:59:02;;;;;;;15.73;5.82;;;;;;;19.55;47.22;101831.31;5134504;27;20055;-58
2022/05/13 08:01:30;;;;;;;13.80;6.05;;;;;;;19.66;47.47;101830.28;5138315;27;20438;-59
2022/05/13 08:03:56;;;;;;;10.30;6.45;;;;;;;19.80;47.12;101834.44;5119707;27;20041;-59
2022/05/13 08:06:23;;;;;;;11.73;5.97;;;;;;;19.91;46.66;101831.56;5138192;27;20035;-60
2022/05/13 08:08:59;;;;;;;7.70;5.18;;;;;;;19.98;46.30;101825.38;5138120;27;20165;-59
2022/05/13 08:11:29;;;;;;;11.13;5.13;;;;;;;20.05;46.34;101836.56;5137260;27;20062;-59
2022/05/13 08:13:56;;;;;;;13.20;5.85;;;;;;;20.09;45.84;101838.00;5119597;27;20085;-60
2022/05/13 08:16:26;;;;;;;9.82;5.82;;;;;;;20.12;45.71;101831.41;5138229;27;20050;-59
2022/05/13 08:18:53;;;;;;;16.38;6.45;;;;;;;20.13;45.83;101828.53;5136897;27;20043;-60
2022/05/13 08:21:20;;;;;;;15.07;6.65;;;;;;;20.16;45.81;101836.41;5137869;27;20043;-60
2022/05/13 08:23:48;;;;;;;9.50;6.18;;;;;;;20.24;45.54;101843.88;5137443;27;20043;-60
2022/05/13 08:26:15;;;;;;;11.60;6.40;;;;;;;20.30;45.81;101844.13;5136183;27;20046;-60
2022/05/13 08:28:42;;;;;;;11.73;5.95;;;;;;;20.37;45.19;101838.94;5137733;27;20534;-59
2022/05/13 08:31:09;;;;;;;12.45;5.72;;;;;;;20.45;45.00;101846.41;5135820;27;20050;-60
2022/05/13 08:33:36;;;;;;;16.42;6.28;;;;;;;20.49;44.82;101845.97;5137409;27;20096;-59
2022/05/13 08:36:05;;;;;;;9.85;5.60;;;;;;;20.51;44.60;101851.28;5137604;27;20039;-59
2022/05/13 08:38:35;;;;;;;11.50;5.70;;;;;;;20.46;45.00;101843.53;5137513;27;20039;-59
2022/05/13 08:41:07;;;;;;;15.02;5.55;;;;;;;20.44;44.46;101851.00;5137454;27;20050;-60
2022/05/13 08:43:43;;;;;;;8.38;5.15;;;;;;;20.40;44.42;101855.06;5137158;27;20046;-59
2022/05/13 08:46:16;;;;;;;16.15;5.80;;;;;;;20.33;44.54;101855.75;5135379;27;20042;-59
2022/05/13 08:49:05;;;;;;;11.10;5.10;;;;;;;20.21;44.71;101864.13;5133342;27;20579;-60
2022/05/13 08:51:55;;;;;;;10.80;6.07;;;;;;;20.15;44.67;101856.53;5137284;27;20047;-60
2022/05/13 08:54:26;;;;;;;11.05;5.78;;;;;;;20.08;44.35;101860.84;5137459;27;20055;-60
2022/05/13 08:56:58;;;;;;;9.88;5.05;;;;;;;20.04;44.76;101858.53;5137572;27;20044;-60
2022/05/13 08:59:31;;;;;;;10.23;5.10;;;;;;;20.02;44.30;101860.53;5136350;27;20050;-60
2022/05/13 09:02:08;;;;;;;12.82;5.20;;;;;;;20.03;44.42;101863.13;5135016;27;20472;-60
2022/05/13 09:04:40;;;;;;;11.30;4.25;;;;;;;20.05;44.58;101861.09;5137246;27;20049;-60
2022/05/13 09:07:12;;;;;;;9.48;4.88;;;;;;;20.16;44.68;101866.41;5137341;27;20130;-60
2022/05/13 09:09:46;;;;;;;9.30;4.63;;;;;;;20.34;44.32;101860.22;5136410;27;20046;-60
2022/05/13 09:12:34;;;;;;;13.25;4.68;;;;;;;20.58;44.71;101869.63;5135975;27;20396;-60
2022/05/13 09:15:35;;;;;;;12.50;4.72;;;;;;;20.81;44.43;101867.41;5136627;27;20055;-59
2022/05/13 09:18:22;;;;;;;11.93;4.88;;;;;;;20.96;43.98;101861.44;5133383;27;20054;-60
2022/05/13 09:20:55;;;;;;;9.25;3.53;;;;;;;21.04;43.33;101858.81;5136185;27;20043;-60
2022/05/13 09:23:22;;;;;;;7.82;3.58;;;;;;;21.07;43.18;101869.44;5136462;27;20053;-59
2022/05/13 09:26:07;;;;;;;11.07;3.17;;;;;;;21.06;42.86;101870.44;5136600;27;20477;-60
2022/05/13 09:28:36;;;;;;;9.55;3.70;;;;;;;21.01;42.60;101872.78;5136819;27;20038;-59
2022/05/13 09:31:19;;;;;;;9.13;3.80;;;;;;;20.95;42.90;101876.97;5136492;27;20492;-59
2022/05/13 09:34:16;;;;;;;12.80;3.95;;;;;;;20.93;42.79;101879.84;5133821;27;20075;-60
2022/05/13 09:36:42;;;;;;;8.38;3.33;;;;;;;20.94;42.68;101887.03;5136725;27;20035;-60
2022/05/13 09:39:21;;;;;;;7.65;3.70;;;;;;;20.93;42.79;101889.94;5135126;27;20554;-59
2022/05/13 09:41:52;;;;;;;9.80;3.67;;;;;;;21.01;42.35;101887.28;5136516;27;20050;-58
2022/05/13 09:44:25;;;;;;;10.32;3.92;;;;;;;21.09;42.60;101884.66;5136338;27;20485;-60
2022/05/13 09:47:08;;;;;;;8.30;3.60;;;;;;;21.25;42.47;101873.09;5136615;27;20126;-59
2022/05/13 09:49:54;;;;;;;8.40;3.65;;;;;;;21.44;42.16;101881.16;5134600;27;20039;-59
2022/05/13 09:52:36;;;;;;;8.63;4.00;;;;;;;21.63;42.19;101879.34;5136222;27;20107;-59
2022/05/13 09:55:23;;;;;;;9.65;4.00;;;;;;;21.72;41.97;101883.88;5135388;27;20039;-59
2022/05/13 09:57:52;;;;;;;11.13;3.97;;;;;;;21.74;41.59;101888.16;5136233;27;20046;-58
2022/05/13 10:00:27;;;;;;;6.97;3.25;;;;;;;21.70;41.09;101878.56;5126693;27;20480;-59
2022/05/13 10:03:19;;;;;;;9.82;3.42;;;;;;;21.70;40.93;101877.69;5135759;27;20412;-60
2022/05/13 10:06:08;;;;;;;8.43;2.85;;;;;;;21.73;41.05;101869.19;5136009;27;20043;-59
2022/05/13 10:14:44;;;;;;;5.20;2.35;;;;;;;21.84;40.16;101874.41;5135716;27;20052;-59
2022/05/13 10:17:24;;;;;;;6.57;2.58;;;;;;;21.89;40.07;101872.91;5132931;27;20513;-60
2022/05/13 10:19:56;;;;;;;5.32;1.90;;;;;;;21.98;40.15;101873.84;5135751;27;20035;-60
2022/05/13 10:22:43;;;;;;;14.38;2.67;;;;;;;22.07;39.75;101866.59;5135468;27;20043;-61
2022/05/13 10:25:20;;;;;;;6.10;2.38;;;;;;;22.18;39.82;101872.66;5135350;27;20046;-60
2022/05/13 10:27:54;;;;;;;8.30;2.40;;;;;;;22.28;39.24;101875.28;5134266;27;20039;-60
2022/05/13 10:30:27;;;;;;;5.95;1.58;;;;;;;22.34;38.97;101865.63;5135668;27;20044;-59
2022/05/13 10:33:10;;;;;;;4.88;1.40;;;;;;;22.40;38.67;101864.97;5134877;27;20035;-60
2022/05/13 10:35:56;;;;;;;4.20;1.90;;;;;;;22.56;38.47;101865.06;5135508;27;20047;-60
2022/05/13 10:38:39;;;;;;;4.30;2.50;;;;;;;22.73;38.34;101866.00;5127554;27;20405;-59
2022/05/13 10:41:42;;;;;;;2.80;1.42;;;;;;;22.79;37.87;101873.56;5135072;27;20370;-59
2022/05/13 10:44:41;;;;;;;4.82;1.77;;;;;;;22.93;37.69;101872.97;5127859;27;20046;-59
2022/05/13 10:47:15;;;;;;;4.13;1.63;;;;;;;23.00;37.29;101874.03;5129228;27;20420;-60
2022/05/13 10:49:44;;;;;;;5.80;1.98;;;;;;;23.05;37.40;101866.22;5134902;27;20507;-60
2022/05/13 10:52:32;;;;;;;6.10;2.17;;;;;;;23.10;37.11;101863.84;5130994;27;20050;-59
2022/05/13 10:55:05;;;;;;;7.00;2.42;;;;;;;23.12;37.07;101864.53;5133406;27;20046;-60
2022/05/13 10:57:47;;;;;;;6.70;2.13;;;;;;;23.11;36.79;101872.91;5134964;27;20046;-60
2022/05/13 11:00:16;;;;;;;9.43;2.20;;;;;;;23.09;36.67;101875.81;5134929;27;20405;-59
2022/05/13 11:03:04;;;;;;;6.63;2.42;;;;;;;23.04;36.73;101869.97;5134628;27;20035;-60
2022/05/13 11:05:47;;;;;;;6.38;2.53;;;;;;;23.00;36.86;101876.78;5134518;27;20055;-59
2022/05/13 11:08:33;;;;;;;7.75;2.40;;;;;;;22.99;36.64;101875.06;5134647;27;20043;-60
2022/05/13 11:11:17;;;;;;;8.38;2.70;;;;;;;22.99;36.65;101872.31;5134921;27;20519;-60
2022/05/13 11:14:15;;;;;;;4.53;2.15;;;;;;;23.08;36.75;101870.50;5134413;27;20050;-61
2022/05/13 11:16:56;;;;;;;6.78;2.38;;;;;;;23.14;36.55;101883.53;5133503;27;20535;-60
2022/05/13 11:19:28;;;;;;;7.07;2.50;;;;;;;23.16;36.51;101877.91;5134462;27;20039;-60
2022/05/13 11:22:02;;;;;;;6.38;1.92;;;;;;;23.16;36.16;101873.28;5134181;27;20043;-61
2022/05/13 11:27:56;;;;;;;5.15;2.33;;;;;;;23.16;36.11;101876.00;5133237;27;20493;-60
2022/05/13 11:31:11;;;;;;;10.77;2.58;;;;;;;23.10;35.89;101873.94;5116637;28;20046;-60
2022/05/13 11:33:53;;;;;;;6.32;1.88;;;;;;;23.12;35.66;101867.25;5133000;27;20489;-61
2022/05/13 11:36:42;;;;;;;3.63;1.85;;;;;;;23.21;36.08;101862.66;5134228;27;20047;-60
2022/05/13 11:39:15;;;;;;;6.25;2.05;;;;;;;23.41;35.80;101875.06;5134436;27;20046;-61
2022/05/13 11:41:59;;;;;;;4.60;2.20;;;;;;;23.55;35.50;101868.09;5134294;28;20398;-60
2022/05/13 11:44:49;;;;;;;6.25;2.15;;;;;;;23.62;35.54;101868.25;5133721;28;20117;-60
2022/05/13 11:47:25;;;;;;;4.93;1.75;;;;;;;23.62;35.14;101863.63;5134642;28;20479;-60
2022/05/13 11:49:52;;;;;;;7.80;2.22;;;;;;;23.63;35.07;101878.22;5134222;28;20512;-61
2022/05/13 11:52:29;;;;;;;9.13;2.00;;;;;;;23.60;35.00;101873.06;5134031;28;20043;-60
2022/05/13 11:55:41;;;;;;;5.53;1.88;;;;;;;23.58;34.90;101877.84;5133680;28;20055;-60
2022/05/13 11:58:28;;;;;;;6.20;2.50;;;;;;;23.62;35.01;101881.97;5031325;28;20161;-60
2022/05/13 12:00:55;;;;;;;6.45;2.30;;;;;;;23.65;35.36;101878.91;5133232;28;20039;-60
2022/05/13 12:03:22;;;;;;;5.78;2.20;;;;;;;23.70;35.17;101880.09;5133526;28;20050;-61
2022/05/13 12:06:06;;;;;;;4.88;2.20;;;;;;;23.81;35.22;101878.94;5134052;27;20039;-59
2022/05/13 12:08:57;;;;;;;7.07;2.67;;;;;;;23.90;34.56;101875.16;5133984;27;20031;-60